createdAt,value
2022-08-21T00:02:36.273Z,100421.93
2022-08-21T00:05:42.364Z,100432.63
2022-08-21T00:08:47.629Z,100414.66
2022-08-21T00:11:54.009Z,100418.12
2022-08-21T00:15:04.461Z,100416.14
2022-08-21T00:18:13.084Z,100417.52
2022-08-21T00:21:18.009Z,100413.36
2022-08-21T00:24:23.826Z,100411.57
2022-08-21T00:27:29.927Z,100415.03
2022-08-21T00:30:37.535Z,100411.86
2022-08-21T00:33:43.893Z,100409.31
2022-08-21T00:36:49.551Z,100414.98
2022-08-21T00:39:57.099Z,100414.28
2022-08-21T00:43:05.896Z,100413.28
2022-08-21T00:46:12.344Z,100397.83
2022-08-21T00:49:18.196Z,100397.72
2022-08-21T00:52:29.560Z,100401.80
2022-08-21T00:55:37.078Z,100402.89
2022-08-21T01:03:40.505Z,100393.02
2022-08-21T01:06:49.041Z,100387.74
2022-08-21T01:09:55.609Z,100389.58
2022-08-21T01:13:03.413Z,100393.41
2022-08-21T01:16:11.929Z,100389.58
2022-08-21T01:19:17.803Z,100386.92
2022-08-21T01:22:23.955Z,100388.24
2022-08-21T01:25:31.332Z,100380.91
2022-08-21T01:28:38.221Z,100381.06
2022-08-21T01:31:45.199Z,100379.34
2022-08-21T01:34:52.909Z,100373.20
2022-08-21T01:38:00.506Z,100380.88
2022-08-21T01:41:08.301Z,100367.48
2022-08-21T01:44:15.287Z,100366.54
2022-08-21T01:47:41.921Z,100367.52
2022-08-21T01:50:47.999Z,100370.28
2022-08-21T01:53:56.311Z,100369.13
2022-08-21T01:57:05.442Z,100378.19
2022-08-21T02:00:12.120Z,100383.42
2022-08-21T02:03:23.249Z,100391.73
2022-08-21T02:06:30.995Z,100389.27
2022-08-21T02:09:40.144Z,100387.24
2022-08-21T02:12:46.794Z,100384.81
2022-08-21T02:15:53.414Z,100390.65
2022-08-21T02:18:58.933Z,100394.35
2022-08-21T02:22:05.902Z,100380.20
2022-08-21T02:25:12.175Z,100386.19
2022-08-21T02:28:21.934Z,100395.25
2022-08-21T02:31:26.963Z,100388.33
2022-08-21T02:34:36.302Z,100393.98
2022-08-21T02:37:41.236Z,100393.45
2022-08-21T02:40:51.138Z,100395.06
2022-08-21T02:43:56.236Z,100396.75
2022-08-21T02:47:02.287Z,100384.73
2022-08-21T02:50:09.064Z,100390.72
2022-08-21T02:53:15.644Z,100398.20
2022-08-21T02:56:25.187Z,100397.78
2022-08-21T02:59:33.381Z,100405.45
2022-08-21T03:02:39.972Z,100409.08
2022-08-21T03:05:47.344Z,100408.64
2022-08-21T03:08:55.057Z,100410.10
2022-08-21T03:12:02.959Z,100412.98
2022-08-21T03:15:10.038Z,100410.95
2022-08-21T03:18:17.228Z,100413.73
2022-08-21T03:21:23.810Z,100414.03
2022-08-21T03:24:29.661Z,100416.35
2022-08-21T03:27:35.223Z,100417.30
2022-08-21T03:30:41.781Z,100418.87
2022-08-21T03:33:48.969Z,100420.36
2022-08-21T03:36:56.573Z,100429.16
2022-08-21T03:40:03.314Z,100431.56
2022-08-21T03:43:11.517Z,100431.03
2022-08-21T03:46:19.775Z,100426.88
2022-08-21T03:49:28.844Z,100428.49
2022-08-21T03:52:34.887Z,100423.81
2022-08-21T03:55:41.297Z,100429.54
2022-08-21T03:58:47.914Z,100429.09
2022-08-21T04:01:54.191Z,100425.23
2022-08-21T04:05:00.446Z,100425.42
2022-08-21T04:08:09.391Z,100432.98
2022-08-21T04:11:19.321Z,100436.23
2022-08-21T04:14:26.023Z,100432.03
2022-08-21T04:17:29.393Z,100427.73
2022-08-21T04:20:35.174Z,100436.00
2022-08-21T04:23:42.373Z,100432.23
2022-08-21T04:26:50.553Z,100435.02
2022-08-21T04:29:56.512Z,100439.36
2022-08-21T04:33:04.339Z,100435.91
2022-08-21T04:36:11.496Z,100429.22
2022-08-21T04:39:22.188Z,100431.40
2022-08-21T04:42:29.975Z,100432.73
2022-08-21T04:45:44.423Z,100435.67
2022-08-21T04:48:51.230Z,100428.64
2022-08-21T04:51:56.653Z,100430.75
2022-08-21T04:55:02.382Z,100426.53
2022-08-21T04:58:08.473Z,100427.91
2022-08-21T05:01:14.341Z,100437.33
2022-08-21T05:04:23.274Z,100432.03
2022-08-21T05:07:42.223Z,100437.22
2022-08-21T05:10:41.572Z,100442.66
2022-08-21T05:13:52.307Z,100444.30
2022-08-21T05:16:59.414Z,100440.88
2022-08-21T05:20:05.978Z,100447.52
2022-08-21T05:23:18.770Z,100450.74
2022-08-21T05:26:26.050Z,100448.67
2022-08-21T05:29:33.786Z,100449.19
2022-08-21T05:32:41.590Z,100447.71
2022-08-21T05:35:49.483Z,100442.69
2022-08-21T05:38:56.218Z,100441.11
2022-08-21T05:42:02.254Z,100444.89
2022-08-21T05:45:09.842Z,100444.22
2022-08-21T05:48:24.698Z,100447.19
2022-08-21T05:51:33.663Z,100440.44
2022-08-21T05:54:39.155Z,100438.42
2022-08-21T05:57:49.613Z,100440.23
2022-08-21T06:01:06.577Z,100439.89
2022-08-21T06:04:12.644Z,100440.65
2022-08-21T06:07:21.068Z,100441.98
2022-08-21T06:10:27.300Z,100447.86
2022-08-21T06:13:36.707Z,100440.84
2022-08-21T06:16:45.326Z,100448.34
2022-08-21T06:19:54.912Z,100452.39
2022-08-21T06:23:01.492Z,100441.19
2022-08-21T06:26:08.359Z,100436.10
2022-08-21T06:29:17.493Z,100438.77
2022-08-21T06:32:26.240Z,100435.85
2022-08-21T06:35:33.382Z,100427.66
2022-08-21T06:38:40.168Z,100432.28
2022-08-21T06:41:45.615Z,100426.90
2022-08-21T06:44:55.969Z,100423.73
2022-08-21T06:48:02.618Z,100417.91
2022-08-21T06:51:07.867Z,100410.73
2022-08-21T06:54:16.742Z,100413.45
2022-08-21T06:57:24.620Z,100409.27
2022-08-21T07:00:32.983Z,100410.33
2022-08-21T07:03:43.879Z,100409.52
2022-08-21T07:06:52.082Z,100409.38
2022-08-21T07:09:58.189Z,100406.19
2022-08-21T07:13:08.450Z,100409.47
2022-08-21T07:16:14.796Z,100413.00
2022-08-21T07:19:21.884Z,100402.30
2022-08-21T07:22:27.128Z,100397.48
2022-08-21T07:25:34.620Z,100410.52
2022-08-21T07:28:44.080Z,100402.96
2022-08-21T07:31:50.159Z,100401.43
2022-08-21T07:34:58.573Z,100402.05
2022-08-21T07:38:06.939Z,100402.40
2022-08-21T07:41:13.782Z,100400.77
2022-08-21T07:44:21.378Z,100408.06
2022-08-21T07:47:41.776Z,100396.67
2022-08-21T07:50:36.212Z,100390.66
2022-08-21T07:53:43.741Z,100389.94
2022-08-21T07:56:49.900Z,100392.30
2022-08-21T07:59:56.991Z,100390.47
2022-08-21T08:03:06.843Z,100387.77
2022-08-21T08:06:14.251Z,100387.09
2022-08-21T08:09:20.773Z,100382.14
2022-08-21T08:12:34.367Z,100384.28
2022-08-21T08:15:45.307Z,100393.63
2022-08-21T08:18:52.602Z,100389.32
2022-08-21T08:21:58.671Z,100381.67
2022-08-21T08:25:09.192Z,100376.58
2022-08-21T08:28:16.637Z,100373.41
2022-08-21T08:31:21.524Z,100376.65
2022-08-21T08:34:31.081Z,100374.77
2022-08-21T08:37:39.685Z,100382.35
2022-08-21T08:40:56.947Z,100379.30
2022-08-21T08:44:13.746Z,100380.46
2022-08-21T08:47:20.991Z,100371.02
2022-08-21T08:50:45.743Z,100362.97
2022-08-21T08:54:05.562Z,100362.47
2022-08-21T08:57:12.610Z,100353.26
2022-08-21T09:00:24.732Z,100347.92
2022-08-21T09:03:32.201Z,100351.89
2022-08-21T09:06:45.375Z,100347.73
2022-08-21T09:10:15.316Z,100356.44
2022-08-21T09:13:46.920Z,100353.38
2022-08-21T09:17:09.048Z,100357.33
2022-08-21T09:20:43.013Z,100354.02
2022-08-21T09:24:18.764Z,100350.94
2022-08-21T09:27:31.138Z,100350.39
2022-08-21T09:30:46.797Z,100349.63
2022-08-21T09:33:54.018Z,100344.60
2022-08-21T09:37:08.264Z,100344.36
2022-08-21T09:40:14.562Z,100340.75
2022-08-21T09:43:33.855Z,100341.61
2022-08-21T09:46:42.414Z,100351.45
2022-08-21T09:49:53.823Z,100355.40
2022-08-21T09:53:07.154Z,100350.36
2022-08-21T09:56:36.429Z,100355.14
2022-08-21T09:59:49.516Z,100345.33
2022-08-21T10:02:56.225Z,100352.14
2022-08-21T10:06:16.340Z,100358.87
2022-08-21T10:09:29.646Z,100353.29
2022-08-21T10:12:40.381Z,100351.61
2022-08-21T10:16:09.975Z,100345.70
2022-08-21T10:19:49.628Z,100340.11
2022-08-21T10:23:07.687Z,100340.38
2022-08-21T10:26:40.642Z,100330.55
2022-08-21T10:29:52.903Z,100330.84
2022-08-21T10:33:22.085Z,100327.47
2022-08-21T10:36:36.113Z,100323.80
2022-08-21T10:40:01.736Z,100319.27
2022-08-21T10:43:56.229Z,100313.36
2022-08-21T10:47:09.504Z,100304.30
2022-08-21T10:50:47.299Z,100305.96
2022-08-21T10:54:22.827Z,100294.10
2022-08-21T10:57:36.512Z,100292.09
2022-08-21T11:00:54.858Z,100299.59
2022-08-21T11:04:30.032Z,100291.89
2022-08-21T11:07:53.398Z,100286.95
2022-08-21T11:11:08.226Z,100289.89
2022-08-21T11:14:22.432Z,100288.05
2022-08-21T11:17:34.358Z,100279.73
2022-08-21T11:21:15.443Z,100282.81
2022-08-21T11:24:52.696Z,100279.30
2022-08-21T11:28:24.729Z,100274.00
2022-08-21T11:32:02.540Z,100268.16
2022-08-21T11:35:36.289Z,100260.62
2022-08-21T11:38:47.661Z,100269.77
2022-08-21T11:41:59.484Z,100259.84
2022-08-21T11:45:29.084Z,100262.17
2022-08-21T11:48:59.811Z,100250.63
2022-08-21T11:52:43.097Z,100261.97
2022-08-21T11:56:20.641Z,100248.73
2022-08-21T11:59:56.716Z,100257.20
2022-08-21T12:03:09.050Z,100259.00
2022-08-21T12:06:24.303Z,100240.83
2022-08-21T12:09:49.738Z,100241.86
2022-08-21T12:12:59.312Z,100237.32
2022-08-21T12:16:07.192Z,100240.56
2022-08-21T12:19:22.478Z,100243.30
2022-08-21T12:22:30.479Z,100238.20
2022-08-21T12:25:36.503Z,100240.34
2022-08-21T12:28:45.134Z,100239.47
2022-08-21T12:31:52.744Z,100238.70
2022-08-21T12:35:36.996Z,100231.64
2022-08-21T12:38:49.187Z,100233.05
2022-08-21T12:42:06.071Z,100219.95
2022-08-21T12:45:15.623Z,100231.56
2022-08-21T12:48:42.878Z,100240.41
2022-08-21T12:52:25.284Z,100235.60
2022-08-21T12:55:33.340Z,100241.75
2022-08-21T12:58:41.447Z,100247.88
2022-08-21T13:02:03.151Z,100247.88
2022-08-21T13:05:10.462Z,100248.78
2022-08-21T13:08:23.521Z,100248.78
2022-08-21T13:11:34.375Z,100251.37
2022-08-21T13:14:56.091Z,100247.75
2022-08-21T13:18:07.692Z,100260.44
2022-08-21T13:21:29.624Z,100260.44
2022-08-21T13:24:43.204Z,100263.58
2022-08-21T13:27:49.279Z,100260.83
2022-08-21T13:31:09.158Z,100266.21
2022-08-21T13:34:19.500Z,100267.63
2022-08-21T13:37:26.283Z,100265.60
2022-08-21T13:40:37.824Z,100265.60
2022-08-21T13:43:50.174Z,100267.61
2022-08-21T13:46:58.694Z,100268.72
2022-08-21T13:50:08.079Z,100264.55
2022-08-21T13:53:24.034Z,100268.23
2022-08-21T13:56:47.370Z,100272.81
2022-08-21T13:59:55.807Z,100273.98
2022-08-21T14:03:07.289Z,100272.38
2022-08-21T14:06:17.585Z,100274.16
2022-08-21T14:09:30.489Z,100271.98
2022-08-21T14:13:07.668Z,100274.83
2022-08-21T14:16:18.337Z,100277.95
2022-08-21T14:19:21.996Z,100278.04
2022-08-21T14:22:53.083Z,100280.01
2022-08-21T14:25:53.533Z,100276.04
2022-08-21T14:29:09.541Z,100279.70
2022-08-21T14:32:21.617Z,100280.86
2022-08-21T14:35:28.060Z,100279.20
2022-08-21T14:38:36.295Z,100285.48
2022-08-21T14:41:46.934Z,100280.71
2022-08-21T14:44:52.813Z,100281.56
2022-08-21T14:47:59.405Z,100276.52
2022-08-21T14:51:09.568Z,100281.65
2022-08-21T14:54:17.644Z,100282.52
2022-08-21T14:57:25.776Z,100278.63
2022-08-21T15:00:35.974Z,100273.84
2022-08-21T15:03:45.149Z,100278.88
2022-08-21T15:06:52.729Z,100277.64
2022-08-21T15:10:01.065Z,100269.78
2022-08-21T15:13:06.991Z,100276.62
2022-08-21T15:16:13.797Z,100270.21
2022-08-21T15:19:19.397Z,100274.19
2022-08-21T15:22:28.834Z,100272.61
2022-08-21T15:25:34.821Z,100270.91
2022-08-21T15:28:44.172Z,100269.28
2022-08-21T15:31:50.596Z,100266.50
2022-08-21T15:34:58.466Z,100273.29
2022-08-21T15:38:05.724Z,100275.84
2022-08-21T15:41:13.108Z,100272.25
2022-08-21T15:44:19.912Z,100273.40
2022-08-21T15:47:34.085Z,100267.54
2022-08-21T15:50:41.238Z,100265.02
2022-08-21T15:53:47.619Z,100268.16
2022-08-21T15:56:58.278Z,100263.13
2022-08-21T16:00:07.650Z,100272.19
2022-08-21T16:03:14.800Z,100274.21
2022-08-21T16:06:37.595Z,100274.51
2022-08-21T16:09:32.468Z,100268.64
2022-08-21T16:12:41.466Z,100269.84
2022-08-21T16:15:48.028Z,100270.73
2022-08-21T16:18:53.915Z,100271.36
2022-08-21T16:22:03.802Z,100273.10
2022-08-21T16:25:11.173Z,100277.58
2022-08-21T16:28:18.626Z,100273.42
2022-08-21T16:31:24.807Z,100283.31
2022-08-21T16:34:36.763Z,100278.84
2022-08-21T16:37:44.326Z,100280.27
2022-08-21T16:40:53.085Z,100281.69
2022-08-21T16:44:00.873Z,100281.39
2022-08-21T16:47:06.636Z,100276.62
2022-08-21T16:50:12.800Z,100280.02
2022-08-21T16:53:18.544Z,100289.30
2022-08-21T16:56:27.174Z,100293.22
2022-08-21T16:59:32.299Z,100295.45
2022-08-21T17:02:47.959Z,100292.86
2022-08-21T17:05:54.247Z,100304.91
2022-08-21T17:09:01.620Z,100309.10
2022-08-21T17:12:09.318Z,100314.39
2022-08-21T17:15:21.228Z,100318.59
2022-08-21T17:18:31.752Z,100317.41
2022-08-21T17:21:37.671Z,100314.05
2022-08-21T17:24:44.045Z,100317.95
2022-08-21T17:27:51.292Z,100320.11
2022-08-21T17:30:57.786Z,100317.55
2022-08-21T17:34:05.499Z,100320.02
2022-08-21T17:37:10.265Z,100316.91
2022-08-21T17:40:17.361Z,100315.72
2022-08-21T17:43:24.931Z,100311.75
2022-08-21T17:46:35.121Z,100317.31
2022-08-21T17:49:41.582Z,100309.65
2022-08-21T17:52:47.635Z,100314.34
2022-08-21T17:55:54.051Z,100319.86
2022-08-21T17:59:05.326Z,100311.37
2022-08-21T18:02:19.590Z,100313.25
2022-08-21T18:05:20.525Z,100310.94
2022-08-21T18:08:26.214Z,100316.95
2022-08-21T18:11:33.108Z,100313.16
2022-08-21T18:14:46.117Z,100313.89
2022-08-21T18:17:55.803Z,100319.13
2022-08-21T18:21:02.519Z,100311.77
2022-08-21T18:24:09.145Z,100312.23
2022-08-21T18:27:14.674Z,100302.70
2022-08-21T18:30:21.239Z,100300.38
2022-08-21T18:33:28.961Z,100308.73
2022-08-21T18:36:36.286Z,100306.70
2022-08-21T18:39:44.215Z,100306.36
2022-08-21T18:42:55.798Z,100309.67
2022-08-21T18:46:04.358Z,100302.02
2022-08-21T18:49:09.658Z,100299.97
2022-08-21T18:52:20.288Z,100307.94
2022-08-21T18:55:24.812Z,100303.45
2022-08-21T18:58:31.212Z,100302.26
2022-08-21T19:01:39.747Z,100295.39
2022-08-21T19:04:48.426Z,100295.27
2022-08-21T19:07:55.521Z,100289.81
2022-08-21T19:11:03.154Z,100295.83
2022-08-21T19:14:10.019Z,100293.25
2022-08-21T19:17:17.721Z,100292.81
2022-08-21T19:20:41.606Z,100286.07
2022-08-21T19:23:52.598Z,100288.49
2022-08-21T19:26:59.968Z,100287.52
2022-08-21T19:30:05.752Z,100288.48
2022-08-21T19:33:13.054Z,100287.32
2022-08-21T19:36:23.480Z,100287.83
2022-08-21T19:39:30.900Z,100289.67
2022-08-21T19:42:37.556Z,100289.04
2022-08-21T19:45:45.819Z,100294.27
2022-08-21T19:48:52.224Z,100292.84
2022-08-21T19:51:59.332Z,100288.06
2022-08-21T19:55:09.213Z,100288.59
2022-08-21T19:58:17.929Z,100287.71
2022-08-21T20:01:25.799Z,100297.19
2022-08-21T20:04:32.248Z,100294.39
2022-08-21T20:07:39.514Z,100290.22
2022-08-21T20:10:45.661Z,100292.12
2022-08-21T20:13:55.990Z,100294.80
2022-08-21T20:17:03.601Z,100287.20
2022-08-21T20:20:10.043Z,100287.99
2022-08-21T20:23:19.586Z,100288.53
2022-08-21T20:26:27.492Z,100284.53
2022-08-21T20:29:38.964Z,100285.61
2022-08-21T20:32:43.498Z,100286.72
2022-08-21T20:35:53.765Z,100278.86
2022-08-21T20:38:59.714Z,100283.58
2022-08-21T20:42:06.970Z,100280.80
2022-08-21T20:45:15.038Z,100280.16
2022-08-21T20:48:49.513Z,100280.66
2022-08-21T20:51:59.837Z,100278.38
2022-08-21T20:55:13.245Z,100279.48
2022-08-21T20:58:32.101Z,100276.98
2022-08-21T21:01:40.731Z,100278.63
2022-08-21T21:05:05.305Z,100284.95
2022-08-21T21:08:39.535Z,100284.34
2022-08-21T21:11:52.978Z,100281.78
2022-08-21T21:15:05.304Z,100273.61
2022-08-21T21:18:24.650Z,100269.97
2022-08-21T21:21:55.012Z,100270.81
2022-08-21T21:25:20.771Z,100272.20
2022-08-21T21:28:48.552Z,100268.53
2022-08-21T21:31:55.249Z,100273.21
2022-08-21T21:35:01.328Z,100268.39
2022-08-21T21:38:51.925Z,100269.17
2022-08-21T21:42:10.077Z,100272.81
2022-08-21T21:45:29.045Z,100271.42
2022-08-21T21:48:59.168Z,100275.60
2022-08-21T21:52:20.164Z,100273.61
2022-08-21T21:55:49.888Z,100275.25
2022-08-21T21:59:12.321Z,100277.49
2022-08-21T22:02:32.629Z,100270.22
2022-08-21T22:06:11.864Z,100270.47
2022-08-21T22:09:36.359Z,100270.61
2022-08-21T22:12:57.879Z,100269.92
2022-08-21T22:16:05.904Z,100265.56
2022-08-21T22:19:18.605Z,100260.81
2022-08-21T22:22:31.442Z,100262.20
2022-08-21T22:25:43.492Z,100252.75
2022-08-21T22:28:54.717Z,100249.72
2022-08-21T22:32:06.948Z,100255.56
2022-08-21T22:35:24.589Z,100252.78
2022-08-21T22:38:48.025Z,100247.72
2022-08-21T22:41:57.768Z,100247.39
2022-08-21T22:45:12.383Z,100252.10
2022-08-21T22:48:22.630Z,100250.06
2022-08-21T22:51:47.945Z,100249.46
2022-08-21T22:54:56.897Z,100250.56
2022-08-21T22:58:25.476Z,100254.13
2022-08-21T23:01:42.025Z,100251.91
2022-08-21T23:04:48.322Z,100253.80
2022-08-21T23:07:58.445Z,100251.27
2022-08-21T23:11:05.136Z,100250.94
2022-08-21T23:14:14.438Z,100247.27
2022-08-21T23:17:27.207Z,100253.08
2022-08-21T23:20:46.968Z,100253.86
2022-08-21T23:23:59.227Z,100247.15
2022-08-21T23:27:34.157Z,100246.54
2022-08-21T23:31:07.020Z,100253.45
2022-08-21T23:34:31.388Z,100258.12
2022-08-21T23:37:59.246Z,100260.36
2022-08-21T23:41:20.579Z,100250.27
2022-08-21T23:48:31.059Z,100256.25
2022-08-21T23:52:18.607Z,100254.81
2022-08-21T23:55:38.524Z,100256.20
2022-08-21T23:59:04.942Z,100261.35
